Time;durP1;ratioP1;P1;durP2;ratioP2;P2;SDS_P1;SDS_P2;PMS_P1;PMS_P2;Temp;Humidity;BMP_temperature;BMP_pressure;BME280_temperature;BME280_humidity;BME280_pressure;Samples;Min_cycle;Max_cycle;Signal;HPM_P1;HPM_P2
2022/04/11 00:00:38;;;;;;;3.53;2.88;;;;;;;;;;4955879;28;20027;-66
2022/04/11 00:03:04;;;;;;;4.68;2.92;;;;;;;;;;4957241;28;20046;-60
2022/04/11 00:05:30;;;;;;;4.10;2.80;;;;;;;;;;4956369;28;20035;-67
2022/04/11 00:07:56;;;;;;;6.28;4.05;;;;;;;;;;4956756;28;20521;-62
2022/04/11 00:10:21;;;;;;;4.40;3.33;;;;;;;;;;4940858;28;20024;-61
2022/04/11 00:12:47;;;;;;;6.72;4.22;;;;;;;;;;4951873;28;20035;-61
2022/04/11 00:15:13;;;;;;;4.70;3.42;;;;;;;;;;4954516;28;20521;-68
2022/04/11 00:17:39;;;;;;;10.57;3.55;;;;;;;;;;4955449;28;20094;-66
2022/04/11 00:20:05;;;;;;;4.10;3.38;;;;;;;;;;4954614;29;20373;-61
2022/04/11 00:22:37;;;;;;;5.50;3.47;;;;;;;;;;4956513;28;20032;-64
2022/04/11 00:25:04;;;;;;;4.97;3.45;;;;;;;;;;4955217;28;20035;-61
2022/04/11 00:27:30;;;;;;;9.55;3.80;;;;;;;;;;4955387;28;20516;-63
2022/04/11 00:29:56;;;;;;;4.90;3.50;;;;;;;;;;4955035;28;20324;-63
2022/04/11 00:32:22;;;;;;;5.78;3.10;;;;;;;;;;4955766;28;20110;-62
2022/04/11 00:34:49;;;;;;;3.83;3.33;;;;;;;;;;4956460;28;20035;-62
2022/04/11 00:37:15;;;;;;;6.72;3.30;;;;;;;;;;4955324;28;20031;-63
2022/04/11 00:39:41;;;;;;;4.57;3.03;;;;;;;;;;4953477;28;20482;-72
2022/04/11 00:42:11;;;;;;;5.40;3.42;;;;;;;;;;4950100;28;20039;-75
2022/04/11 00:44:37;;;;;;;4.78;3.30;;;;;;;;;;4955151;28;20054;-68
2022/04/11 00:47:03;;;;;;;4.90;2.88;;;;;;;;;;4955604;28;20481;-74
2022/04/11 00:49:29;;;;;;;9.45;3.78;;;;;;;;;;4949269;28;20031;-72
2022/04/11 00:51:56;;;;;;;4.03;3.25;;;;;;;;;;4936675;29;20049;-63
2022/04/11 00:54:22;;;;;;;3.75;3.08;;;;;;;;;;4948954;28;20031;-73
2022/04/11 00:56:50;;;;;;;4.15;3.03;;;;;;;;;;4955340;28;20039;-70
2022/04/11 00:59:17;;;;;;;4.13;2.50;;;;;;;;;;4955642;29;20031;-69
2022/04/11 01:01:43;;;;;;;4.45;2.88;;;;;;;;;;4954403;29;20158;-69
2022/04/11 01:04:23;;;;;;;4.90;2.72;;;;;;;;;;4955152;29;20110;-68
2022/04/11 01:06:50;;;;;;;4.55;2.50;;;;;;;;;;4955384;28;20046;-62
2022/04/11 01:09:16;;;;;;;3.78;2.50;;;;;;;;;;4955185;28;20389;-66
2022/04/11 01:11:42;;;;;;;4.40;2.58;;;;;;;;;;4955333;28;20039;-62
2022/04/11 01:14:08;;;;;;;3.92;2.45;;;;;;;;;;4954274;28;20035;-62
2022/04/11 01:16:34;;;;;;;3.97;2.63;;;;;;;;;;4953566;28;20401;-64
2022/04/11 01:19:00;;;;;;;3.72;2.35;;;;;;;;;;4954521;28;20497;-64
2022/04/11 01:21:31;;;;;;;3.88;2.38;;;;;;;;;;4954590;29;20038;-67
2022/04/11 01:23:57;;;;;;;4.20;2.30;;;;;;;;;;4955631;28;20043;-62
2022/04/11 01:26:26;;;;;;;7.93;2.40;;;;;;;;;;4953789;28;20015;-62
2022/04/11 01:28:53;;;;;;;3.10;2.00;;;;;;;;;;4970222;28;20035;-62
2022/04/11 01:31:19;;;;;;;3.92;2.40;;;;;;;;;;4954281;29;20035;-62
2022/04/11 01:33:45;;;;;;;5.63;2.40;;;;;;;;;;4955339;28;20102;-62
2022/04/11 01:36:11;;;;;;;5.53;3.08;;;;;;;;;;4953198;28;20042;-62
2022/04/11 01:38:37;;;;;;;4.43;2.58;;;;;;;;;;4954541;29;20028;-62
2022/04/11 01:41:03;;;;;;;4.55;3.08;;;;;;;;;;4952801;29;20359;-63
2022/04/11 01:43:30;;;;;;;4.63;2.90;;;;;;;;;;4952675;28;20035;-62
2022/04/11 01:45:56;;;;;;;4.60;2.90;;;;;;;;;;4953125;28;20043;-62
2022/04/11 01:48:51;;;;;;;3.85;2.60;;;;;;;;;;4957789;28;20105;-62
2022/04/11 01:51:18;;;;;;;5.10;2.92;;;;;;;;;;4954273;28;20490;-65
2022/04/11 01:53:44;;;;;;;4.38;2.72;;;;;;;;;;4969033;28;20047;-64
2022/04/11 01:56:10;;;;;;;5.28;3.00;;;;;;;;;;4952726;28;20039;-65
2022/04/11 01:58:36;;;;;;;6.65;3.28;;;;;;;;;;4955038;28;20090;-61
2022/04/11 02:01:02;;;;;;;5.20;3.03;;;;;;;;;;4953777;29;20127;-61
2022/04/11 02:03:32;;;;;;;8.75;3.50;;;;;;;;;;4953335;28;20540;-62
2022/04/11 02:05:58;;;;;;;4.75;2.80;;;;;;;;;;4953041;29;20032;-61
2022/04/11 02:08:24;;;;;;;5.40;2.47;;;;;;;;;;4953336;28;20028;-63
2022/04/11 02:10:56;;;;;;;4.95;2.67;;;;;;;;;;4952733;28;20047;-62
2022/04/11 02:13:22;;;;;;;3.88;2.78;;;;;;;;;;4952656;29;20050;-66
2022/04/11 02:15:48;;;;;;;4.55;2.72;;;;;;;;;;4968206;28;20093;-62
2022/04/11 02:18:14;;;;;;;14.18;3.30;;;;;;;;;;4953908;28;20133;-63
2022/04/11 02:20:39;;;;;;;9.27;3.08;;;;;;;;;;4952850;28;20023;-63
2022/04/11 02:23:09;;;;;;;5.00;2.58;;;;;;;;;;4954508;28;20493;-64
2022/04/11 02:25:36;;;;;;;6.63;2.70;;;;;;;;;;4953448;28;20106;-62
2022/04/11 02:28:03;;;;;;;4.82;2.85;;;;;;;;;;4952115;28;20038;-64
2022/04/11 02:30:29;;;;;;;6.38;3.25;;;;;;;;;;4968536;28;20035;-63
2022/04/11 02:32:55;;;;;;;6.15;3.28;;;;;;;;;;4952901;28;20035;-63
2022/04/11 02:35:24;;;;;;;9.65;3.30;;;;;;;;;;4968586;28;20035;-63
2022/04/11 02:37:50;;;;;;;4.93;2.65;;;;;;;;;;4953890;28;20174;-63
2022/04/11 02:40:16;;;;;;;4.95;3.10;;;;;;;;;;4954703;28;20059;-61
2022/04/11 02:43:02;;;;;;;5.80;2.55;;;;;;;;;;4967977;28;20035;-68
2022/04/11 02:45:29;;;;;;;5.47;2.35;;;;;;;;;;4952600;28;20050;-71
2022/04/11 02:47:55;;;;;;;6.68;2.42;;;;;;;;;;4953127;28;20390;-62
2022/04/11 02:50:21;;;;;;;4.70;2.40;;;;;;;;;;4968066;28;20098;-61
2022/04/11 02:52:59;;;;;;;5.72;2.30;;;;;;;;;;4951583;29;20479;-63
2022/04/11 02:55:25;;;;;;;3.97;2.47;;;;;;;;;;4953226;29;20027;-63
2022/04/11 02:57:52;;;;;;;6.35;2.60;;;;;;;;;;4968945;28;20393;-62
2022/04/11 03:00:21;;;;;;;4.50;2.30;;;;;;;;;;4953452;29;20041;-62
2022/04/11 03:02:55;;;;;;;3.10;2.38;;;;;;;;;;4968628;28;20047;-66
2022/04/11 03:05:23;;;;;;;5.45;2.53;;;;;;;;;;4952287;29;20037;-61
2022/04/11 03:07:52;;;;;;;4.07;2.65;;;;;;;;;;4967558;28;20024;-62
2022/04/11 03:10:19;;;;;;;7.32;2.83;;;;;;;;;;4951875;28;20043;-66
2022/04/11 03:12:48;;;;;;;5.75;2.50;;;;;;;;;;4952600;29;20019;-63
2022/04/11 03:15:14;;;;;;;3.80;2.40;;;;;;;;;;4966301;28;20037;-63
2022/04/11 03:17:41;;;;;;;7.53;2.50;;;;;;;;;;4952193;28;20035;-70
2022/04/11 03:20:11;;;;;;;4.28;2.58;;;;;;;;;;4952552;29;20039;-68
2022/04/11 03:22:39;;;;;;;4.88;3.00;;;;;;;;;;4951822;28;20070;-68
2022/04/11 03:25:07;;;;;;;4.60;2.45;;;;;;;;;;4952466;29;20390;-63
2022/04/11 03:27:35;;;;;;;7.55;2.95;;;;;;;;;;4951269;28;20050;-63
2022/04/11 03:30:02;;;;;;;4.55;2.50;;;;;;;;;;4951559;29;20067;-65
2022/04/11 03:32:29;;;;;;;3.70;2.45;;;;;;;;;;4952711;28;20517;-67
2022/04/11 03:34:57;;;;;;;4.80;2.75;;;;;;;;;;4952361;28;20039;-70
2022/04/11 03:37:24;;;;;;;3.67;2.30;;;;;;;;;;4967069;28;20473;-69
2022/04/11 03:40:03;;;;;;;5.68;2.50;;;;;;;;;;4967565;28;20109;-67
2022/04/11 03:42:29;;;;;;;5.53;2.63;;;;;;;;;;4967765;28;20038;-63
2022/04/11 03:44:54;;;;;;;4.25;2.28;;;;;;;;;;4966898;28;20024;-62
2022/04/11 03:47:21;;;;;;;6.10;2.78;;;;;;;;;;4950101;28;20031;-66
2022/04/11 03:49:48;;;;;;;10.77;3.70;;;;;;;;;;4951196;28;20042;-71
2022/04/11 03:52:23;;;;;;;7.05;2.38;;;;;;;;;;4952417;28;20058;-69
2022/04/11 03:54:50;;;;;;;7.32;2.40;;;;;;;;;;4951333;28;20122;-72
2022/04/11 03:57:16;;;;;;;5.63;2.15;;;;;;;;;;4951440;28;20509;-66
2022/04/11 03:59:44;;;;;;;7.20;2.92;;;;;;;;;;4950545;28;20434;-67
2022/04/11 04:02:11;;;;;;;4.18;2.63;;;;;;;;;;4951139;28;20509;-64
2022/04/11 04:04:37;;;;;;;3.45;2.20;;;;;;;;;;4951229;28;20054;-73
2022/04/11 04:07:04;;;;;;;3.30;2.08;;;;;;;;;;4951363;28;20039;-64
2022/04/11 04:09:30;;;;;;;5.95;2.35;;;;;;;;;;4951237;28;20102;-68
2022/04/11 04:11:56;;;;;;;5.25;2.30;;;;;;;;;;4951161;28;20123;-67
2022/04/11 04:14:55;;;;;;;4.55;2.35;;;;;;;;;;4951220;29;20094;-67
2022/04/11 04:17:23;;;;;;;8.93;3.10;;;;;;;;;;4951981;28;20043;-65
2022/04/11 04:19:58;;;;;;;4.35;2.60;;;;;;;;;;4959394;28;20055;-67
2022/04/11 04:22:24;;;;;;;8.88;2.80;;;;;;;;;;4949789;28;20031;-66
2022/04/11 04:24:50;;;;;;;6.40;2.42;;;;;;;;;;4966032;28;20027;-63
2022/04/11 04:27:16;;;;;;;5.68;2.50;;;;;;;;;;4953193;28;20035;-66
2022/04/11 04:29:42;;;;;;;6.65;2.33;;;;;;;;;;4955210;28;20023;-69
2022/04/11 04:32:08;;;;;;;5.05;2.15;;;;;;;;;;4953637;28;20089;-72
2022/04/11 04:34:37;;;;;;;7.57;2.53;;;;;;;;;;4969018;28;20051;-65
2022/04/11 04:37:04;;;;;;;7.95;2.47;;;;;;;;;;4970756;28;20069;-71
2022/04/11 04:39:30;;;;;;;5.45;2.42;;;;;;;;;;4971658;28;20029;-70
2022/04/11 04:41:58;;;;;;;4.32;2.20;;;;;;;;;;4954973;28;20553;-68
2022/04/11 04:44:25;;;;;;;6.10;2.33;;;;;;;;;;4954368;28;20027;-70
2022/04/11 04:46:56;;;;;;;3.10;2.20;;;;;;;;;;4970469;28;20034;-69
2022/04/11 04:49:25;;;;;;;4.47;2.63;;;;;;;;;;4971377;28;20043;-72
2022/04/11 04:51:55;;;;;;;4.00;2.40;;;;;;;;;;4955085;28;20070;-72
2022/04/11 04:54:21;;;;;;;3.95;2.25;;;;;;;;;;4955344;28;20040;-73
2022/04/11 04:56:49;;;;;;;6.82;2.92;;;;;;;;;;4954516;28;20035;-74
2022/04/11 04:59:22;;;;;;;9.55;4.07;;;;;;;;;;4954218;29;20086;-72
2022/04/11 05:01:48;;;;;;;12.43;4.70;;;;;;;;;;4955421;28;20031;-67
2022/04/11 05:04:15;;;;;;;13.00;5.07;;;;;;;;;;4971193;28;20126;-68
2022/04/11 05:06:41;;;;;;;8.75;4.55;;;;;;;;;;4956001;28;20118;-65
2022/04/11 05:09:10;;;;;;;7.78;2.95;;;;;;;;;;4953511;28;20392;-63
2022/04/11 05:11:36;;;;;;;5.20;2.67;;;;;;;;;;4954192;28;20047;-64
2022/04/11 05:14:02;;;;;;;6.60;2.67;;;;;;;;;;4970963;28;20031;-64
2022/04/11 05:16:31;;;;;;;3.33;2.20;;;;;;;;;;4969781;28;20129;-63
2022/04/11 05:18:58;;;;;;;5.55;2.22;;;;;;;;;;4954955;28;20106;-67
2022/04/11 05:21:24;;;;;;;7.75;2.60;;;;;;;;;;4971477;28;20031;-66
2022/04/11 05:23:50;;;;;;;12.60;2.72;;;;;;;;;;4954408;28;20031;-64
2022/04/11 05:26:18;;;;;;;8.52;2.42;;;;;;;;;;4969695;28;20394;-63
2022/04/11 05:28:45;;;;;;;14.57;4.30;;;;;;;;;;4954247;28;20413;-65
2022/04/11 05:31:12;;;;;;;16.30;3.50;;;;;;;;;;4955776;29;20042;-62
2022/04/11 05:33:40;;;;;;;15.15;3.00;;;;;;;;;;4970819;28;20027;-62
2022/04/11 05:36:10;;;;;;;15.90;4.13;;;;;;;;;;4953951;28;20064;-70
2022/04/11 05:38:36;;;;;;;31.30;5.82;;;;;;;;;;4954278;28;20359;-62
2022/04/11 05:41:04;;;;;;;26.52;5.28;;;;;;;;;;4954010;29;20024;-73
2022/04/11 05:43:46;;;;;;;31.13;4.78;;;;;;;;;;4970486;28;20050;-66
2022/04/11 05:46:13;;;;;;;9.05;2.63;;;;;;;;;;4969878;28;20401;-64
2022/04/11 05:48:45;;;;;;;8.15;2.47;;;;;;;;;;4969833;28;20090;-70
2022/04/11 05:51:11;;;;;;;8.75;2.15;;;;;;;;;;4945737;28;20047;-72
2022/04/11 05:53:37;;;;;;;4.28;2.03;;;;;;;;;;4955191;28;20030;-70
2022/04/11 05:56:04;;;;;;;10.98;2.65;;;;;;;;;;4953900;28;20054;-71
2022/04/11 05:58:30;;;;;;;7.00;2.20;;;;;;;;;;4953136;28;20027;-71
2022/04/11 06:00:57;;;;;;;8.13;2.90;;;;;;;;;;4969565;28;20035;-71
2022/04/11 06:03:24;;;;;;;7.68;2.33;;;;;;;;;;4953871;29;20027;-76
2022/04/11 06:05:51;;;;;;;5.75;2.33;;;;;;;;;;4954947;28;20050;-76
2022/04/11 06:08:17;;;;;;;5.65;2.40;;;;;;;;;;4969198;28;20113;-73
2022/04/11 06:10:44;;;;;;;10.05;2.67;;;;;;;;;;4953139;28;20043;-72
2022/04/11 06:13:15;;;;;;;10.68;3.03;;;;;;;;;;4969994;28;20054;-71
2022/04/11 06:15:41;;;;;;;4.70;2.72;;;;;;;;;;4969640;28;20494;-70
2022/04/11 06:18:07;;;;;;;6.00;2.53;;;;;;;;;;4968763;28;20517;-70
2022/04/11 06:20:33;;;;;;;4.22;2.03;;;;;;;;;;4968545;28;20433;-73
2022/04/11 06:23:02;;;;;;;6.22;2.50;;;;;;;;;;4968640;28;20034;-70
2022/04/11 06:25:30;;;;;;;6.20;2.40;;;;;;;;;;4969467;28;20098;-73
2022/04/11 06:27:56;;;;;;;21.30;3.83;;;;;;;;;;4952463;28;20490;-70
2022/04/11 06:30:22;;;;;;;4.57;2.42;;;;;;;;;;4969559;28;20042;-69
2022/04/11 06:32:48;;;;;;;5.07;2.00;;;;;;;;;;4969895;28;20030;-77
2022/04/11 06:35:15;;;;;;;5.55;2.35;;;;;;;;;;4955545;28;20486;-70
2022/04/11 06:37:41;;;;;;;6.03;2.20;;;;;;;;;;4956778;28;20042;-68
2022/04/11 06:40:07;;;;;;;8.90;2.15;;;;;;;;;;4952842;28;20042;-70
2022/04/11 06:42:35;;;;;;;3.25;2.15;;;;;;;;;;4968746;28;20385;-69
2022/04/11 06:45:04;;;;;;;2.45;1.77;;;;;;;;;;4967185;28;20035;-71
2022/04/11 06:47:32;;;;;;;8.68;2.28;;;;;;;;;;4968429;28;20027;-79
2022/04/11 06:49:59;;;;;;;9.68;2.22;;;;;;;;;;4952227;28;20375;-71
2022/04/11 06:52:25;;;;;;;5.30;1.90;;;;;;;;;;4953842;28;20045;-78
2022/04/11 06:54:50;;;;;;;15.48;2.35;;;;;;;;;;4952097;28;20046;-72
2022/04/11 06:57:16;;;;;;;5.88;1.92;;;;;;;;;;4953115;28;20042;-74
2022/04/11 06:59:42;;;;;;;5.65;1.85;;;;;;;;;;4953199;28;20427;-71
2022/04/11 07:02:08;;;;;;;4.22;1.80;;;;;;;;;;4953416;28;20031;-72
2022/04/11 07:04:34;;;;;;;2.90;1.50;;;;;;;;;;4954224;28;20166;-71
2022/04/11 07:07:00;;;;;;;7.80;2.40;;;;;;;;;;4952707;28;20478;-72
2022/04/11 07:09:27;;;;;;;6.63;1.92;;;;;;;;;;4954068;28;20039;-73
2022/04/11 07:11:53;;;;;;;14.27;2.80;;;;;;;;;;4955208;28;20486;-74
2022/04/11 07:14:20;;;;;;;2.22;1.63;;;;;;;;;;4953754;28;20039;-78
2022/04/11 07:16:48;;;;;;;4.10;1.70;;;;;;;;;;4953515;28;20033;-77
2022/04/11 07:19:14;;;;;;;12.02;2.58;;;;;;;;;;4952671;29;20035;-77
2022/04/11 07:21:40;;;;;;;8.05;2.85;;;;;;;;;;4952602;28;20119;-78
2022/04/11 07:24:06;;;;;;;2.67;1.55;;;;;;;;;;4953765;28;20055;-78
2022/04/11 07:26:32;;;;;;;11.68;4.28;;;;;;;;;;4954287;28;20083;-72
2022/04/11 07:28:58;;;;;;;9.05;2.03;;;;;;;;;;4953430;28;20035;-76
2022/04/11 07:31:27;;;;;;;2.85;1.52;;;;;;;;;;4954301;28;20035;-77
2022/04/11 07:33:53;;;;;;;3.25;1.40;;;;;;;;;;4954274;28;20042;-69
2022/04/11 07:36:19;;;;;;;11.20;2.40;;;;;;;;;;4953701;28;20027;-74
2022/04/11 07:38:44;;;;;;;2.75;1.52;;;;;;;;;;4954012;28;20031;-74
2022/04/11 07:41:10;;;;;;;7.28;1.77;;;;;;;;;;4953291;28;20019;-71
2022/04/11 07:43:36;;;;;;;6.93;3.58;;;;;;;;;;4952454;28;20061;-75
2022/04/11 07:46:04;;;;;;;5.00;1.75;;;;;;;;;;4952427;28;20517;-72
2022/04/11 07:48:30;;;;;;;28.58;2.95;;;;;;;;;;4953351;28;20032;-77
2022/04/11 07:50:56;;;;;;;2.50;1.50;;;;;;;;;;4954152;28;20209;-78
2022/04/11 07:53:22;;;;;;;8.50;1.95;;;;;;;;;;4968399;28;20042;-70
2022/04/11 07:55:48;;;;;;;4.25;1.92;;;;;;;;;;4953343;28;20264;-71
2022/04/11 07:58:15;;;;;;;6.18;1.75;;;;;;;;;;4953144;28;20031;-75
2022/04/11 08:00:44;;;;;;;4.35;1.70;;;;;;;;;;4953734;28;20545;-69
2022/04/11 08:03:10;;;;;;;5.97;1.50;;;;;;;;;;4957095;28;20038;-70
2022/04/11 08:05:36;;;;;;;5.15;1.50;;;;;;;;;;4957690;28;20110;-71
2022/04/11 08:08:02;;;;;;;5.20;1.50;;;;;;;;;;4956744;28;20035;-74
2022/04/11 08:10:28;;;;;;;4.20;1.70;;;;;;;;;;4971204;28;20082;-76
2022/04/11 08:12:55;;;;;;;3.83;1.50;;;;;;;;;;4957384;28;20046;-78
2022/04/11 08:15:22;;;;;;;4.82;1.45;;;;;;;;;;4956611;28;20094;-77
2022/04/11 08:17:48;;;;;;;5.07;1.60;;;;;;;;;;4957404;28;20405;-73
2022/04/11 08:20:14;;;;;;;1.80;1.25;;;;;;;;;;4957004;28;20028;-70
2022/04/11 08:22:40;;;;;;;4.35;1.58;;;;;;;;;;4956964;28;20494;-70
2022/04/11 08:25:06;;;;;;;3.33;1.67;;;;;;;;;;4955696;28;20037;-71
2022/04/11 08:27:32;;;;;;;7.43;1.77;;;;;;;;;;4970838;28;20102;-71
2022/04/11 08:29:58;;;;;;;2.38;1.50;;;;;;;;;;4971929;28;20123;-69
2022/04/11 08:32:23;;;;;;;5.07;1.83;;;;;;;;;;4955646;28;20486;-72
2022/04/11 08:34:49;;;;;;;2.78;1.30;;;;;;;;;;4956316;28;20027;-73
2022/04/11 08:37:15;;;;;;;3.25;1.65;;;;;;;;;;4955393;28;20418;-71
2022/04/11 08:39:41;;;;;;;4.35;1.60;;;;;;;;;;4956937;28;20034;-73
2022/04/11 08:42:07;;;;;;;2.55;1.60;;;;;;;;;;4956630;28;20145;-71
2022/04/11 08:44:34;;;;;;;2.13;1.40;;;;;;;;;;4956686;28;20031;-72
2022/04/11 08:47:06;;;;;;;2.95;1.30;;;;;;;;;;4956013;28;20058;-70
2022/04/11 08:49:31;;;;;;;2.10;1.45;;;;;;;;;;4957675;28;20118;-73
2022/04/11 08:51:58;;;;;;;4.43;1.50;;;;;;;;;;4957986;28;20110;-75
2022/04/11 08:54:24;;;;;;;3.03;1.50;;;;;;;;;;4956668;28;20062;-79
2022/04/11 08:56:50;;;;;;;2.83;1.23;;;;;;;;;;4956018;28;20027;-80
2022/04/11 08:59:16;;;;;;;4.65;1.35;;;;;;;;;;4955506;28;20390;-78
2022/04/11 09:01:42;;;;;;;2.20;1.30;;;;;;;;;;4956247;28;20023;-72
2022/04/11 09:04:08;;;;;;;2.63;1.35;;;;;;;;;;4956080;28;20494;-80
2022/04/11 09:06:35;;;;;;;3.60;1.55;;;;;;;;;;4949937;28;20047;-75
2022/04/11 09:09:02;;;;;;;3.00;1.45;;;;;;;;;;4943575;28;20034;-75
2022/04/11 09:11:37;;;;;;;5.15;1.60;;;;;;;;;;4937646;29;20142;-77
2022/04/11 09:14:07;;;;;;;5.13;2.55;;;;;;;;;;4936051;29;20079;-78
2022/04/11 09:16:49;;;;;;;2.97;1.42;;;;;;;;;;4955025;28;20045;-80
2022/04/11 09:19:23;;;;;;;4.10;1.23;;;;;;;;;;4954616;29;20043;-76
2022/04/11 09:21:54;;;;;;;2.95;1.40;;;;;;;;;;4957135;28;20031;-77
2022/04/11 09:24:24;;;;;;;7.10;3.55;;;;;;;;;;4954806;29;20042;-81
2022/04/11 09:26:57;;;;;;;2.40;1.30;;;;;;;;;;4955075;28;20118;-81
2022/04/11 09:29:24;;;;;;;3.92;1.33;;;;;;;;;;4955637;28;20090;-80
2022/04/11 09:31:50;;;;;;;7.53;2.55;;;;;;;;;;4956144;28;20027;-80
2022/04/11 09:34:27;;;;;;;2.28;1.30;;;;;;;;;;4953548;29;20513;-81
2022/04/11 09:36:58;;;;;;;6.50;1.58;;;;;;;;;;4954478;28;20042;-78
2022/04/11 09:39:26;;;;;;;3.15;1.30;;;;;;;;;;4954966;28;20038;-76
2022/04/11 09:41:52;;;;;;;3.10;1.33;;;;;;;;;;4954365;28;20019;-76
2022/04/11 09:44:22;;;;;;;3.55;1.70;;;;;;;;;;4954668;29;20043;-77
2022/04/11 09:46:49;;;;;;;3.45;1.65;;;;;;;;;;4969978;28;20050;-72
2022/04/11 09:49:16;;;;;;;2.38;1.50;;;;;;;;;;4956595;28;20110;-76
2022/04/11 09:52:08;;;;;;;5.25;1.98;;;;;;;;;;4956615;28;20051;-72
2022/04/11 09:54:47;;;;;;;2.83;1.70;;;;;;;;;;4955085;29;20090;-76
2022/04/11 09:57:15;;;;;;;4.63;1.33;;;;;;;;;;4954251;28;20114;-79
2022/04/11 09:59:43;;;;;;;3.20;1.40;;;;;;;;;;4953738;28;20419;-79
2022/04/11 10:02:12;;;;;;;4.03;1.42;;;;;;;;;;4955161;29;20042;-77
2022/04/11 10:04:39;;;;;;;3.55;1.60;;;;;;;;;;4955277;28;20023;-79
2022/04/11 10:07:09;;;;;;;4.13;1.58;;;;;;;;;;4954362;28;20027;-71
2022/04/11 10:09:39;;;;;;;4.03;1.50;;;;;;;;;;4955206;28;20482;-72
2022/04/11 10:12:05;;;;;;;2.55;1.70;;;;;;;;;;4953977;28;20406;-69
2022/04/11 10:14:32;;;;;;;3.13;1.55;;;;;;;;;;4953982;29;20035;-71
2022/04/11 10:17:01;;;;;;;1.88;1.40;;;;;;;;;;4954103;28;20050;-70
2022/04/11 10:19:38;;;;;;;3.33;1.63;;;;;;;;;;4954993;28;20110;-69
2022/04/11 10:22:06;;;;;;;2.45;1.70;;;;;;;;;;4954975;28;20031;-71
2022/04/11 10:24:35;;;;;;;5.55;2.20;;;;;;;;;;4953738;28;20173;-70
2022/04/11 10:27:25;;;;;;;4.10;1.73;;;;;;;;;;4953694;28;20490;-72
2022/04/11 10:29:55;;;;;;;3.50;1.25;;;;;;;;;;4954514;29;20394;-71
2022/04/11 10:32:23;;;;;;;10.02;2.85;;;;;;;;;;4954704;28;20077;-71
2022/04/11 10:35:07;;;;;;;5.32;1.75;;;;;;;;;;4953307;28;20117;-71
2022/04/11 10:37:39;;;;;;;3.67;1.60;;;;;;;;;;4954105;28;20035;-71
2022/04/11 10:40:17;;;;;;;2.38;1.48;;;;;;;;;;4954357;28;20035;-76
2022/04/11 10:43:10;;;;;;;4.47;1.20;;;;;;;;;;4953430;28;20031;-71
2022/04/11 10:45:41;;;;;;;5.93;1.55;;;;;;;;;;4953504;29;20050;-68
2022/04/11 10:48:09;;;;;;;6.82;1.90;;;;;;;;;;4953562;28;20435;-68
2022/04/11 10:50:36;;;;;;;6.28;1.85;;;;;;;;;;4953638;28;20035;-78
2022/04/11 10:53:15;;;;;;;5.15;1.75;;;;;;;;;;4957250;28;20050;-77
2022/04/11 10:55:57;;;;;;;2.45;1.45;;;;;;;;;;4953658;28;20110;-81
2022/04/11 10:58:39;;;;;;;3.97;1.88;;;;;;;;;;4953306;28;20039;-80
2022/04/11 11:01:05;;;;;;;5.28;1.70;;;;;;;;;;4954165;28;20061;-76
2022/04/11 11:03:30;;;;;;;4.28;1.50;;;;;;;;;;4954069;28;20343;-75
2022/04/11 11:06:15;;;;;;;1.60;1.17;;;;;;;;;;4953795;28;20039;-77
2022/04/11 11:08:41;;;;;;;2.97;1.65;;;;;;;;;;4956288;28;20043;-73
2022/04/11 11:11:25;;;;;;;3.88;1.60;;;;;;;;;;4956737;28;20090;-73
2022/04/11 11:13:52;;;;;;;8.55;2.30;;;;;;;;;;4954339;29;20031;-78
2022/04/11 11:16:19;;;;;;;2.97;1.50;;;;;;;;;;4952546;28;20027;-70
2022/04/11 11:18:51;;;;;;;4.65;1.60;;;;;;;;;;4953847;28;20039;-72
2022/04/11 11:21:31;;;;;;;5.57;1.65;;;;;;;;;;4953542;28;20039;-77
2022/04/11 11:26:52;;;;;;;4.43;1.50;;;;;;;;;;4954139;28;20039;-70
2022/04/11 11:29:17;;;;;;;6.28;1.73;;;;;;;;;;4954158;28;20037;-69
2022/04/11 11:31:45;;;;;;;6.20;1.83;;;;;;;;;;4952644;28;20035;-73
2022/04/11 11:34:13;;;;;;;4.40;2.38;;;;;;;;;;4953818;28;20047;-70
2022/04/11 11:36:40;;;;;;;3.20;1.50;;;;;;;;;;4955645;28;20027;-73
2022/04/11 11:39:17;;;;;;;4.63;1.70;;;;;;;;;;4958117;28;20031;-75
2022/04/11 11:41:43;;;;;;;4.97;1.77;;;;;;;;;;4956906;28;20071;-70
2022/04/11 11:44:10;;;;;;;4.20;1.75;;;;;;;;;;4956987;28;20035;-73
2022/04/11 11:46:56;;;;;;;3.72;1.80;;;;;;;;;;4957715;28;20035;-71
2022/04/11 11:49:24;;;;;;;5.32;1.70;;;;;;;;;;4957825;28;20035;-69
2022/04/11 11:51:51;;;;;;;3.53;1.60;;;;;;;;;;4957692;28;20053;-68
2022/04/11 11:54:34;;;;;;;3.78;1.88;;;;;;;;;;4957564;28;20054;-70
2022/04/11 11:57:00;;;;;;;;;;;;;;;;;;4957447;28;20142;-69
2022/04/11 11:59:26;;;;;;;3.95;1.70;;;;;;;;;;4957027;29;20367;-70
2022/04/11 12:04:39;;;;;;;6.32;1.85;;;;;;;;;;4957587;28;20042;-69
2022/04/11 12:07:06;;;;;;;2.95;1.65;;;;;;;;;;4957487;28;20024;-71
2022/04/11 12:09:41;;;;;;;4.78;1.77;;;;;;;;;;4957265;28;20031;-69
2022/04/11 12:12:11;;;;;;;7.72;1.80;;;;;;;;;;4957295;28;20027;-69
2022/04/11 12:15:00;;;;;;;9.43;1.75;;;;;;;;;;4957308;28;20027;-70
2022/04/11 12:17:34;;;;;;;4.40;2.17;;;;;;;;;;4957121;28;20058;-68
2022/04/11 12:20:11;;;;;;;7.90;1.50;;;;;;;;;;4957263;29;20089;-70
2022/04/11 12:22:37;;;;;;;3.65;1.40;;;;;;;;;;4957272;29;20047;-70
2022/04/11 12:25:24;;;;;;;3.28;1.77;;;;;;;;;;4957630;28;20367;-70
2022/04/11 12:27:50;;;;;;;6.68;1.75;;;;;;;;;;4957128;28;20058;-70
2022/04/11 12:30:17;;;;;;;6.38;1.85;;;;;;;;;;4957047;28;20046;-71
2022/04/11 12:32:43;;;;;;;4.68;2.22;;;;;;;;;;4957268;28;20078;-70
2022/04/11 12:35:19;;;;;;;3.83;1.50;;;;;;;;;;4957347;28;20145;-73
2022/04/11 12:37:50;;;;;;;3.60;1.90;;;;;;;;;;4958086;28;20039;-84
2022/04/11 12:40:19;;;;;;;2.50;1.55;;;;;;;;;;4957224;28;20039;-72
2022/04/11 12:42:45;;;;;;;5.20;1.55;;;;;;;;;;4971576;28;20023;-69
2022/04/11 12:45:15;;;;;;;6.65;1.70;;;;;;;;;;4956739;28;20363;-69
2022/04/11 12:48:05;;;;;;;3.03;1.63;;;;;;;;;;4956780;28;20034;-69
2022/04/11 12:50:33;;;;;;;3.80;1.73;;;;;;;;;;4956732;28;20039;-70
2022/04/11 12:53:00;;;;;;;3.13;1.27;;;;;;;;;;4956868;28;20039;-67
2022/04/11 12:55:29;;;;;;;4.50;2.00;;;;;;;;;;4957164;28;20042;-75
2022/04/11 12:58:02;;;;;;;3.63;1.52;;;;;;;;;;4957375;28;20027;-70
2022/04/11 13:00:29;;;;;;;3.90;1.50;;;;;;;;;;4956718;28;20065;-71
2022/04/11 13:02:56;;;;;;;5.28;1.55;;;;;;;;;;4956809;28;20386;-72
2022/04/11 13:05:24;;;;;;;3.67;1.55;;;;;;;;;;4956107;28;20082;-71
2022/04/11 13:07:50;;;;;;;2.38;1.40;;;;;;;;;;4955890;28;20019;-76
2022/04/11 13:10:20;;;;;;;3.35;1.52;;;;;;;;;;4956458;29;20035;-75
2022/04/11 13:12:46;;;;;;;2.60;1.40;;;;;;;;;;4956516;29;20031;-73
2022/04/11 13:15:12;;;;;;;3.80;1.67;;;;;;;;;;4971913;28;20035;-75
2022/04/11 13:20:26;;;;;;;3.80;1.52;;;;;;;;;;4956662;29;20032;-76
2022/04/11 13:22:53;;;;;;;4.15;1.90;;;;;;;;;;4956529;28;20047;-77
2022/04/11 13:25:20;;;;;;;3.00;1.50;;;;;;;;;;4956412;29;20175;-75
2022/04/11 13:27:47;;;;;;;4.05;1.40;;;;;;;;;;4956187;29;20577;-77
2022/04/11 13:30:13;;;;;;;5.25;1.63;;;;;;;;;;4956331;28;20382;-75
2022/04/11 13:32:39;;;;;;;6.72;1.58;;;;;;;;;;4956137;28;20027;-73
2022/04/11 13:35:08;;;;;;;5.43;1.60;;;;;;;;;;4956100;28;20030;-69
2022/04/11 13:37:35;;;;;;;2.63;1.33;;;;;;;;;;4956307;28;20039;-78
2022/04/11 13:40:01;;;;;;;3.75;1.40;;;;;;;;;;4956780;28;20034;-70
2022/04/11 13:42:28;;;;;;;5.95;1.70;;;;;;;;;;4956875;28;20042;-72
2022/04/11 13:44:54;;;;;;;3.20;1.30;;;;;;;;;;4956640;28;20477;-70
2022/04/11 13:47:20;;;;;;;6.90;3.97;;;;;;;;;;4955774;28;20087;-78
2022/04/11 13:49:46;;;;;;;3.20;1.40;;;;;;;;;;4956000;29;20031;-80
2022/04/11 13:52:12;;;;;;;2.55;1.40;;;;;;;;;;4956122;28;20039;-77
2022/04/11 13:54:38;;;;;;;11.63;1.55;;;;;;;;;;4955628;29;20430;-75
2022/04/11 13:57:04;;;;;;;3.83;1.40;;;;;;;;;;4956063;28;20402;-68
2022/04/11 13:59:30;;;;;;;6.50;2.00;;;;;;;;;;4955396;28;20031;-73
2022/04/11 14:01:56;;;;;;;3.08;1.52;;;;;;;;;;4955769;28;20114;-74
2022/04/11 14:04:23;;;;;;;4.18;1.40;;;;;;;;;;4955686;29;20123;-72
2022/04/11 14:06:49;;;;;;;5.35;1.75;;;;;;;;;;4955835;29;20035;-76
2022/04/11 14:09:16;;;;;;;9.35;2.03;;;;;;;;;;4955891;29;20023;-79
2022/04/11 14:11:44;;;;;;;4.55;1.38;;;;;;;;;;4955771;28;20039;-83
2022/04/11 14:14:10;;;;;;;3.92;2.00;;;;;;;;;;4970126;28;20027;-79
2022/04/11 14:16:36;;;;;;;3.22;1.20;;;;;;;;;;4955445;29;20147;-78
2022/04/11 14:19:02;;;;;;;9.50;1.52;;;;;;;;;;4955664;28;20027;-76
2022/04/11 14:21:29;;;;;;;4.75;1.65;;;;;;;;;;4955507;28;20038;-76
2022/04/11 14:23:55;;;;;;;6.15;1.60;;;;;;;;;;4955532;28;20467;-74
2022/04/11 14:26:21;;;;;;;3.95;1.48;;;;;;;;;;4955549;28;20441;-78
2022/04/11 14:28:47;;;;;;;2.38;1.35;;;;;;;;;;4955593;28;20023;-78
2022/04/11 14:31:14;;;;;;;6.90;1.70;;;;;;;;;;4949379;29;20038;-74
2022/04/11 14:33:40;;;;;;;3.13;1.52;;;;;;;;;;4951771;28;20082;-76
2022/04/11 14:36:07;;;;;;;9.90;1.70;;;;;;;;;;4953922;28;20458;-76
2022/04/11 14:38:34;;;;;;;4.03;1.50;;;;;;;;;;4955659;28;20027;-76
2022/04/11 14:41:00;;;;;;;3.33;1.42;;;;;;;;;;4957099;28;20066;-76
2022/04/11 14:43:27;;;;;;;2.47;1.50;;;;;;;;;;4954036;28;20015;-72
2022/04/11 14:45:53;;;;;;;7.10;1.65;;;;;;;;;;4954446;28;20494;-74
2022/04/11 14:48:19;;;;;;;8.23;2.35;;;;;;;;;;4967717;28;20027;-77
2022/04/11 14:50:46;;;;;;;5.72;1.60;;;;;;;;;;4952703;28;20043;-79
2022/04/11 14:53:11;;;;;;;2.38;1.55;;;;;;;;;;4953401;28;20553;-71
2022/04/11 14:55:38;;;;;;;3.53;1.50;;;;;;;;;;4952863;29;20031;-71
2022/04/11 14:58:06;;;;;;;3.25;1.30;;;;;;;;;;4953033;28;20031;-72